Terminal Aerodrome Forecast
Issued by NWS Cleveland, OH

Home | Current Version | Previous Version | Graphics & Text | Print | Product List | Glossary On
Versions: 1 2 3 4 5 6 7 8 9 10 11 12 13 14 15 16 17 18 19 20 21 22 23 24 25 26 27 28
000
FTUS41 KCLE 151400 AAA
TAFCLE
TAF AMD
KCLE 151455Z 1515/1618 20008KT P6SM SCT080 BKN250
     FM151900 20008KT P6SM SCT045 OVC080
     FM152100 22008KT 6SM -RA OVC045
     FM152300 22006KT 4SM -RA BR OVC030
     FM160500 30006KT 4SM BR OVC015
     FM160900 30006KT 6SM BR OVC005
     FM161400 34006KT P6SM BKN015 OVC040
     FM161600 36006KT P6SM BKN040=

USA.gov is the U.S. government's official web portal to all federal, state and local government web resources and services.